Time;durP1;ratioP1;P1;durP2;ratioP2;P2;SDS_P1;SDS_P2;PMS_P1;PMS_P2;Temp;Humidity;BMP_temperature;BMP_pressure;BME280_temperature;BME280_humidity;BME280_pressure;Samples;Min_cycle;Max_cycle;Signal;HPM_P1;HPM_P2
2021/04/04 00:00:01;;;;;;;12.43;7.95;;;;;;;1.86;87.62;98920.45;1813907;79;21091;-62
2021/04/04 00:02:31;;;;;;;14.93;8.05;;;;;;;1.86;87.79;98919.98;1783235;77;21207;-58
2021/04/04 00:04:58;;;;;;;8.50;6.35;;;;;;;1.89;87.84;98924.14;1786863;79;21005;-56
2021/04/04 00:07:27;;;;;;;10.25;6.05;;;;;;;1.92;87.82;98930.91;1744289;80;21586;-57
2021/04/04 00:09:55;;;;;;;7.92;5.97;;;;;;;1.90;87.77;98927.13;1726113;82;20942;-57
2021/04/04 00:12:22;;;;;;;8.43;6.03;;;;;;;1.90;87.90;98928.91;1782195;79;21116;-58
2021/04/04 00:14:51;;;;;;;7.72;5.53;;;;;;;1.89;87.84;98930.70;1744457;80;21354;-56
2021/04/04 00:17:18;;;;;;;6.20;4.50;;;;;;;1.86;87.65;98926.54;1746660;80;21151;-56
2021/04/04 00:19:46;;;;;;;7.40;4.95;;;;;;;1.83;87.71;98932.03;1726296;82;21112;-56
2021/04/04 00:22:14;;;;;;;8.08;5.20;;;;;;;1.83;87.75;98932.03;1707321;82;21001;-57
2021/04/04 00:24:42;;;;;;;5.65;4.90;;;;;;;1.82;87.71;98933.49;1746033;80;21111;-58
2021/04/04 00:27:10;;;;;;;7.08;5.90;;;;;;;1.81;87.81;98935.75;1742756;80;21390;-59
2021/04/04 00:29:37;;;;;;;6.92;6.10;;;;;;;1.76;87.75;98940.55;1725189;82;20950;-58
2021/04/04 00:32:05;;;;;;;8.03;5.53;;;;;;;1.76;87.99;98941.86;1714947;82;21095;-58
2021/04/04 00:34:33;;;;;;;6.55;5.17;;;;;;;1.73;87.94;98944.27;1746866;80;21084;-58
2021/04/04 00:37:02;;;;;;;6.55;4.80;;;;;;;1.71;88.13;98946.66;1724079;80;21005;-58
2021/04/04 00:39:30;;;;;;;4.85;4.33;;;;;;;1.73;88.52;98941.64;1782245;79;21389;-58
2021/04/04 00:41:57;;;;;;;5.12;4.22;;;;;;;1.77;88.58;98943.03;1788697;79;21080;-57
2021/04/04 00:44:25;;;;;;;6.67;5.08;;;;;;;1.82;88.78;98948.75;1787104;78;20965;-58
2021/04/04 00:46:53;;;;;;;5.22;4.62;;;;;;;1.84;88.60;98942.89;1745224;80;21127;-58
2021/04/04 00:49:20;;;;;;;5.37;4.75;;;;;;;1.83;88.62;98939.91;1723696;82;21148;-57
2021/04/04 00:51:48;;;;;;;5.65;4.85;;;;;;;1.82;88.45;98938.73;1722887;82;21152;-61
2021/04/04 00:54:16;;;;;;;5.92;4.60;;;;;;;1.79;88.57;98944.23;1732554;82;21135;-59
2021/04/04 00:56:44;;;;;;;6.85;4.37;;;;;;;1.79;88.71;98945.07;1722141;82;21207;-56
2021/04/04 00:59:13;;;;;;;5.30;4.20;;;;;;;1.81;88.67;98946.23;1733578;82;21147;-56
2021/04/04 01:01:42;;;;;;;4.10;3.30;;;;;;;1.83;88.76;98953.50;1727255;82;21187;-57
2021/04/04 01:04:10;;;;;;;5.08;3.42;;;;;;;1.85;88.73;98957.66;1714945;82;21223;-57
2021/04/04 01:06:39;;;;;;;4.10;3.58;;;;;;;1.82;88.55;98955.78;1723320;82;21164;-56
2021/04/04 01:09:07;;;;;;;6.28;4.17;;;;;;;1.79;88.45;98951.63;1724676;82;21124;-59
2021/04/04 01:11:41;;;;;;;4.10;3.70;;;;;;;1.78;88.51;98960.92;1725083;82;21012;-56
2021/04/04 01:14:29;;;;;;;4.40;3.90;;;;;;;1.79;88.42;98959.50;1724558;82;21127;-57
2021/04/04 01:17:00;;;;;;;3.65;3.17;;;;;;;1.77;88.34;98957.96;1723561;82;21217;-58
2021/04/04 01:19:54;;;;;;;4.62;3.45;;;;;;;1.79;88.39;98966.05;1724020;82;21172;-56
2021/04/04 01:22:48;;;;;;;3.70;3.15;;;;;;;1.75;88.10;98963.79;1724876;82;21084;-56
2021/04/04 01:25:23;;;;;;;4.62;3.42;;;;;;;1.71;88.04;98967.64;1726105;82;21099;-56
2021/04/04 01:28:03;;;;;;;3.62;3.17;;;;;;;1.67;88.11;98960.97;1677983;81;21168;-57
2021/04/04 01:30:33;;;;;;;4.42;3.83;;;;;;;1.67;88.19;98962.28;1721340;82;21330;-58
2021/04/04 01:33:02;;;;;;;3.80;3.40;;;;;;;1.64;88.22;98963.87;1727808;82;21610;-58
2021/04/04 01:35:35;;;;;;;4.00;3.40;;;;;;;1.61;88.17;98970.67;1730518;82;21080;-56
2021/04/04 01:38:23;;;;;;;4.92;3.45;;;;;;;1.58;88.17;98966.52;1726050;82;21160;-58
2021/04/04 01:40:58;;;;;;;4.20;3.60;;;;;;;1.53;88.27;98963.91;1642754;86;21205;-57
2021/04/04 01:43:26;;;;;;;4.37;3.12;;;;;;;1.51;88.47;98969.77;1685248;83;21395;-57
2021/04/04 01:45:54;;;;;;;4.37;2.92;;;;;;;1.50;88.64;98974.64;1686969;83;21161;-57
2021/04/04 01:48:21;;;;;;;5.25;3.42;;;;;;;1.51;88.77;98971.08;1684139;83;21158;-57
2021/04/04 01:50:49;;;;;;;6.55;4.12;;;;;;;1.49;88.69;98976.43;1651938;85;21162;-56
2021/04/04 01:53:17;;;;;;;4.83;3.98;;;;;;;1.51;88.91;98978.44;1655060;85;21169;-58
2021/04/04 01:55:45;;;;;;;6.95;3.45;;;;;;;1.54;88.87;98976.08;1667786;83;21401;-58
2021/04/04 01:58:12;;;;;;;4.58;3.35;;;;;;;1.54;88.78;98978.70;1619455;85;21818;-56
2021/04/04 02:00:40;;;;;;;3.60;3.30;;;;;;;1.53;88.79;98975.71;1652906;85;21164;-56
2021/04/04 02:03:08;;;;;;;3.00;2.70;;;;;;;1.54;88.66;98977.39;1687403;85;21088;-57
2021/04/04 02:05:36;;;;;;;3.83;3.10;;;;;;;1.51;88.72;98973.20;1683598;84;21142;-57
2021/04/04 02:08:07;;;;;;;4.90;3.72;;;;;;;1.50;88.69;98974.64;1669581;84;21371;-57
2021/04/04 02:10:37;;;;;;;3.98;3.62;;;;;;;1.47;88.69;98982.75;1643775;85;21094;-57
2021/04/04 02:13:05;;;;;;;5.85;4.37;;;;;;;1.45;88.77;98980.75;1688635;83;21584;-57
2021/04/04 02:15:33;;;;;;;4.03;3.35;;;;;;;1.44;88.82;98980.37;1688664;83;21215;-56
2021/04/04 02:18:01;;;;;;;3.90;3.47;;;;;;;1.44;88.90;98983.84;1684070;83;21208;-58
2021/04/04 02:20:30;;;;;;;4.47;3.17;;;;;;;1.42;88.78;98987.55;1634064;85;22164;-56
2021/04/04 02:23:00;;;;;;;4.58;3.75;;;;;;;1.38;88.64;98992.70;1682421;83;21126;-58
2021/04/04 02:25:28;;;;;;;3.67;3.30;;;;;;;1.31;88.67;98991.50;1659986;83;21043;-57
2021/04/04 02:27:56;;;;;;;5.83;3.85;;;;;;;1.29;88.75;98996.05;1655214;85;21174;-56
2021/04/04 02:30:24;;;;;;;4.90;4.15;;;;;;;1.24;88.73;98999.05;1635390;83;21091;-57
2021/04/04 02:33:38;;;;;;;4.47;3.70;;;;;;;1.17;88.88;98992.14;1686376;83;21226;-57
2021/04/04 02:36:11;;;;;;;6.10;3.45;;;;;;;1.17;89.11;98996.06;1686319;83;21154;-58
2021/04/04 02:38:41;;;;;;;4.22;3.62;;;;;;;1.16;89.23;99000.97;1655856;84;21134;-56
2021/04/04 02:41:09;;;;;;;4.78;3.50;;;;;;;1.17;89.27;98998.69;1678475;83;21192;-56
2021/04/04 02:43:39;;;;;;;6.70;3.60;;;;;;;1.15;89.35;99004.53;1693598;83;21105;-55
2021/04/04 02:46:10;;;;;;;5.08;3.75;;;;;;;1.15;89.37;99005.84;1721541;82;22301;-56
2021/04/04 02:48:47;;;;;;;4.97;3.85;;;;;;;1.15;89.43;99005.84;1691462;83;21141;-58
2021/04/04 02:51:19;;;;;;;7.42;4.95;;;;;;;1.14;89.38;98996.34;1718699;82;21147;-56
2021/04/04 02:53:50;;;;;;;5.85;4.60;;;;;;;1.14;89.40;98994.19;1726704;81;21129;-56
2021/04/04 02:56:18;;;;;;;4.72;4.05;;;;;;;1.15;89.39;98998.45;1721526;82;21153;-58
2021/04/04 02:58:47;;;;;;;4.70;4.20;;;;;;;1.14;89.32;99002.89;1726660;81;22232;-55
2021/04/04 03:01:16;;;;;;;5.55;3.42;;;;;;;1.16;89.37;99002.75;1720797;82;21591;-57
2021/04/04 03:03:44;;;;;;;3.67;3.22;;;;;;;1.17;89.47;99000.50;1726644;81;21163;-56
2021/04/04 03:06:12;;;;;;;7.28;4.40;;;;;;;1.17;89.56;98997.38;1721533;82;21078;-57
2021/04/04 03:08:40;;;;;;;6.75;4.80;;;;;;;1.17;89.59;98994.75;1726663;81;21069;-58
2021/04/04 03:11:10;;;;;;;4.75;3.95;;;;;;;1.20;89.88;99002.37;1720768;82;21212;-57
2021/04/04 03:13:39;;;;;;;4.10;3.70;;;;;;;1.24;89.98;99001.19;1723810;81;21611;-56
2021/04/04 03:16:06;;;;;;;5.15;3.70;;;;;;;1.28;90.01;99004.88;1721264;81;21165;-55
2021/04/04 03:18:34;;;;;;;4.90;3.98;;;;;;;1.32;89.93;99001.04;1693564;83;21110;-56
2021/04/04 03:21:04;;;;;;;4.80;3.58;;;;;;;1.35;89.78;99001.64;1696291;82;21075;-57
2021/04/04 03:23:31;;;;;;;5.12;3.90;;;;;;;1.38;89.78;99005.33;1721311;81;21368;-57
2021/04/04 03:26:00;;;;;;;5.37;3.80;;;;;;;1.41;89.78;99005.05;1718390;82;21015;-57
2021/04/04 03:28:28;;;;;;;5.58;3.77;;;;;;;1.43;89.74;99004.95;1719543;82;21145;-55
2021/04/04 03:30:56;;;;;;;6.37;4.65;;;;;;;1.43;89.70;99002.33;1717993;82;21208;-55
2021/04/04 03:33:24;;;;;;;6.05;4.42;;;;;;;1.46;89.71;99004.20;1691330;83;21077;-58
2021/04/04 03:35:52;;;;;;;6.08;4.47;;;;;;;1.49;89.66;99007.05;1721270;81;21346;-56
2021/04/04 03:38:22;;;;;;;7.25;4.47;;;;;;;1.51;89.52;99010.41;1721099;81;21157;-56
2021/04/04 03:40:50;;;;;;;5.22;3.87;;;;;;;1.53;89.50;99011.11;1698345;83;21147;-57
2021/04/04 03:43:24;;;;;;;4.53;3.50;;;;;;;1.55;89.52;99009.18;1692115;83;21012;-57
2021/04/04 03:45:56;;;;;;;5.83;4.12;;;;;;;1.58;89.44;99008.47;1690907;83;21136;-55
2021/04/04 03:48:24;;;;;;;4.90;4.15;;;;;;;1.59;89.43;99003.55;1690892;83;21400;-57
2021/04/04 03:50:51;;;;;;;7.37;4.40;;;;;;;1.63;89.43;99001.52;1692232;83;21148;-58
2021/04/04 03:53:20;;;;;;;7.00;4.78;;;;;;;1.65;89.38;99004.84;1690806;83;21114;-57
2021/04/04 03:55:55;;;;;;;8.15;4.55;;;;;;;1.67;89.29;99006.38;1690815;83;21139;-59
2021/04/04 03:58:23;;;;;;;7.25;4.80;;;;;;;1.72;89.23;99008.66;1692665;83;21135;-57
2021/04/04 04:00:51;;;;;;;6.65;4.72;;;;;;;1.74;89.17;99005.41;1692718;83;21209;-56
2021/04/04 04:03:18;;;;;;;7.50;4.75;;;;;;;1.78;89.00;99012.90;1670473;84;21149;-57
2021/04/04 04:05:47;;;;;;;6.28;4.70;;;;;;;1.84;89.01;99011.09;1686050;83;21041;-56
2021/04/04 04:08:16;;;;;;;6.08;4.62;;;;;;;1.88;88.85;99013.80;1685852;83;21785;-56
2021/04/04 04:10:45;;;;;;;7.47;5.35;;;;;;;1.93;88.67;99002.11;1681886;83;21168;-58
2021/04/04 04:13:13;;;;;;;7.35;5.65;;;;;;;1.95;88.47;99008.05;1694350;83;21218;-56
2021/04/04 04:15:41;;;;;;;6.97;5.60;;;;;;;1.96;88.30;99007.91;1690782;83;20970;-55
2021/04/04 04:18:09;;;;;;;9.48;5.28;;;;;;;1.99;88.14;99010.77;1690748;83;21152;-57
2021/04/04 04:20:38;;;;;;;7.20;4.87;;;;;;;2.01;88.12;99013.61;1691945;83;21065;-57
2021/04/04 04:23:07;;;;;;;5.28;4.78;;;;;;;2.04;88.22;99013.36;1671085;84;21616;-58
2021/04/04 04:25:36;;;;;;;7.37;4.37;;;;;;;2.11;88.19;99018.94;1693451;83;21420;-58
2021/04/04 04:28:05;;;;;;;5.83;4.35;;;;;;;2.15;88.04;99021.17;1672064;83;21631;-56
2021/04/04 04:30:33;;;;;;;6.35;4.22;;;;;;;2.20;87.86;99024.72;1692304;83;21096;-58
2021/04/04 04:33:06;;;;;;;6.70;4.78;;;;;;;2.27;87.79;99023.23;1690735;83;21132;-59
2021/04/04 04:35:36;;;;;;;6.28;5.15;;;;;;;2.30;87.51;99022.50;1691130;83;21139;-56
2021/04/04 04:38:04;;;;;;;8.93;5.17;;;;;;;2.36;87.47;99027.25;1687113;83;21216;-56
2021/04/04 04:40:32;;;;;;;7.78;5.35;;;;;;;2.43;87.46;99028.38;1689755;82;21086;-56
2021/04/04 04:43:00;;;;;;;7.12;4.60;;;;;;;2.49;87.29;99039.69;1694101;83;21127;-58
2021/04/04 04:45:33;;;;;;;5.30;3.85;;;;;;;2.56;87.35;99035.20;1694025;83;21163;-57
2021/04/04 04:48:02;;;;;;;6.05;4.97;;;;;;;2.62;87.18;99040.78;1693634;83;21156;-57
2021/04/04 04:50:29;;;;;;;7.40;5.03;;;;;;;2.67;86.96;99042.53;1693424;83;21363;-57
2021/04/04 04:52:58;;;;;;;7.92;5.05;;;;;;;2.74;86.76;99044.17;1694112;83;21009;-58
2021/04/04 04:55:26;;;;;;;5.80;4.92;;;;;;;2.81;86.63;99039.56;1693997;83;21049;-56
2021/04/04 04:57:55;;;;;;;6.17;4.50;;;;;;;2.89;86.23;99045.00;1690550;83;21171;-58
2021/04/04 05:00:23;;;;;;;6.20;4.97;;;;;;;2.93;85.95;99041.59;1693545;83;21190;-58
2021/04/04 05:02:50;;;;;;;7.47;5.22;;;;;;;2.96;86.09;99044.80;1689400;83;22005;-56
2021/04/04 05:05:20;;;;;;;8.40;5.40;;;;;;;3.03;86.02;99047.72;1694094;83;21231;-56
2021/04/04 05:07:47;;;;;;;10.63;6.10;;;;;;;3.09;85.58;99048.03;1666721;84;21137;-56
2021/04/04 05:10:15;;;;;;;12.50;7.70;;;;;;;3.16;85.24;99047.00;1694088;83;21088;-56
2021/04/04 05:12:45;;;;;;;14.85;7.58;;;;;;;3.21;85.00;99047.42;1693525;83;21157;-56
2021/04/04 05:15:15;;;;;;;10.13;6.97;;;;;;;3.27;84.67;99044.27;1693983;83;21380;-56
2021/04/04 05:17:43;;;;;;;12.40;7.10;;;;;;;3.30;84.11;99046.63;1674220;83;21257;-56
2021/04/04 05:20:12;;;;;;;10.40;6.85;;;;;;;3.33;83.85;99049.00;1693867;83;20981;-56
2021/04/04 05:22:40;;;;;;;11.45;6.95;;;;;;;3.35;83.62;99050.16;1692521;83;21215;-56
2021/04/04 05:25:09;;;;;;;11.65;6.75;;;;;;;3.41;83.61;99050.47;1694046;83;21135;-57
2021/04/04 05:27:37;;;;;;;11.28;7.37;;;;;;;3.45;83.51;99051.02;1693206;83;21281;-57
2021/04/04 05:30:10;;;;;;;10.93;6.05;;;;;;;3.49;83.00;99056.37;1693220;83;21108;-56
2021/04/04 05:32:49;;;;;;;8.83;5.50;;;;;;;3.53;82.39;99058.58;1691629;83;21137;-57
2021/04/04 05:35:18;;;;;;;8.78;5.17;;;;;;;3.59;82.14;99063.30;1674962;83;21168;-56
2021/04/04 05:37:51;;;;;;;8.68;5.05;;;;;;;3.66;81.98;99065.73;1693810;83;21153;-57
2021/04/04 05:40:26;;;;;;;8.60;5.65;;;;;;;3.74;81.62;99066.36;1694010;82;21385;-58
2021/04/04 05:42:59;;;;;;;9.03;6.00;;;;;;;3.79;81.10;99065.94;1694074;83;21525;-55
2021/04/04 05:45:36;;;;;;;10.28;6.85;;;;;;;3.84;80.54;99066.35;1674724;83;21088;-57
2021/04/04 05:48:36;;;;;;;12.40;7.12;;;;;;;3.85;80.24;99068.86;1685032;83;21148;-56
2021/04/04 05:51:43;;;;;;;11.22;7.22;;;;;;;3.90;80.04;99073.70;1694137;83;21488;-58
2021/04/04 05:54:48;;;;;;;11.50;7.03;;;;;;;3.94;79.69;99077.23;1693422;83;21498;-58
2021/04/04 05:57:26;;;;;;;13.28;7.60;;;;;;;3.99;79.56;99072.89;1690663;83;21240;-57
2021/04/04 06:00:05;;;;;;;9.68;6.78;;;;;;;4.06;79.31;99068.73;1646024;84;20974;-56
2021/04/04 06:03:14;;;;;;;15.35;7.90;;;;;;;4.15;79.07;99067.88;1693597;83;21053;-56
2021/04/04 06:05:57;;;;;;;12.93;7.70;;;;;;;4.19;78.71;99068.80;1694239;83;21084;-57
2021/04/04 06:09:01;;;;;;;12.80;7.85;;;;;;;4.30;78.73;99067.30;1684542;83;21349;-57
2021/04/04 06:12:11;;;;;;;15.05;6.87;;;;;;;4.43;78.44;99072.30;1694209;83;21027;-59
2021/04/04 06:15:01;;;;;;;12.60;6.42;;;;;;;4.58;78.12;99069.56;1693968;83;21162;-57
2021/04/04 06:17:39;;;;;;;11.95;5.87;;;;;;;4.76;77.27;99063.05;1693902;83;21052;-58
2021/04/04 06:20:24;;;;;;;13.70;7.58;;;;;;;4.92;77.01;99057.53;1694084;83;21060;-57
2021/04/04 06:22:52;;;;;;;12.00;6.83;;;;;;;5.12;76.65;99062.70;1693239;83;21336;-58
2021/04/04 06:25:49;;;;;;;14.20;7.28;;;;;;;5.28;75.18;99062.91;1687629;83;20974;-58
2021/04/04 06:29:00;;;;;;;11.83;7.33;;;;;;;5.33;74.42;99064.61;1680364;83;21144;-56
2021/04/04 06:31:35;;;;;;;13.38;6.35;;;;;;;5.40;73.77;99064.35;1694077;83;21281;-58
2021/04/04 06:34:19;;;;;;;10.68;6.58;;;;;;;5.53;73.37;99068.79;1667349;84;21064;-57
2021/04/04 06:37:24;;;;;;;14.25;8.20;;;;;;;5.65;72.82;99066.30;1693655;83;21389;-57
2021/04/04 06:40:14;;;;;;;13.72;7.15;;;;;;;5.74;72.32;99067.19;1694054;83;20964;-57
2021/04/04 06:43:00;;;;;;;12.55;7.58;;;;;;;5.99;72.06;99073.10;1694345;83;20950;-57
2021/04/04 06:46:01;;;;;;;13.60;8.65;;;;;;;6.18;71.30;99067.16;1693600;83;21155;-58
2021/04/04 06:48:50;;;;;;;13.93;8.25;;;;;;;6.43;70.88;99066.88;1694150;83;21175;-58
2021/04/04 06:51:30;;;;;;;12.98;7.12;;;;;;;6.64;69.84;99058.11;1693664;83;22206;-60
2021/04/04 06:54:18;;;;;;;16.20;7.95;;;;;;;6.86;69.17;99064.66;1674686;83;21234;-58
2021/04/04 06:57:41;;;;;;;13.10;8.15;;;;;;;7.06;68.50;99067.44;1675540;83;21206;-57
2021/04/04 07:00:14;;;;;;;12.80;8.13;;;;;;;7.22;67.64;99067.48;1676290;83;21222;-58
2021/04/04 07:03:08;;;;;;;13.72;8.08;;;;;;;7.56;67.01;99063.47;1694721;83;21588;-57
2021/04/04 07:06:01;;;;;;;17.32;8.60;;;;;;;7.87;66.21;99072.48;1701009;83;21457;-58
2021/04/04 07:09:10;;;;;;;16.55;10.30;;;;;;;8.12;64.86;99072.03;1692530;83;21171;-59
2021/04/04 07:11:48;;;;;;;13.00;7.87;;;;;;;8.28;64.07;99075.22;1693103;83;21137;-60
2021/04/04 07:14:43;;;;;;;24.00;9.85;;;;;;;8.41;62.63;99080.85;1693941;83;21173;-61
2021/04/04 07:17:55;;;;;;;17.45;8.88;;;;;;;8.53;62.69;99080.83;1694012;83;21156;-59
2021/04/04 07:20:36;;;;;;;18.48;10.05;;;;;;;8.77;61.77;99085.28;1693120;83;21258;-58
2021/04/04 07:23:50;;;;;;;14.38;7.90;;;;;;;9.03;61.35;99081.92;1693861;83;21559;-59
2021/04/04 07:26:58;;;;;;;16.87;8.50;;;;;;;9.24;59.88;99094.13;1692742;83;21571;-57
2021/04/04 07:29:58;;;;;;;24.67;11.45;;;;;;;9.56;59.72;99089.20;1693339;83;21185;-59
2021/04/04 07:32:46;;;;;;;21.60;11.33;;;;;;;9.89;58.11;99105.29;1664867;84;21180;-57
2021/04/04 07:35:36;;;;;;;20.00;12.05;;;;;;;10.10;57.55;99102.84;1652336;85;21387;-60
2021/04/04 07:38:14;;;;;;;21.48;11.80;;;;;;;10.38;57.38;99098.67;1688828;84;21100;-58
2021/04/04 07:41:12;;;;;;;20.08;10.43;;;;;;;10.88;57.26;99095.41;1691330;82;21177;-59
2021/04/04 07:43:51;;;;;;;20.12;10.23;;;;;;;11.55;55.00;99093.48;1700429;83;21185;-56
2021/04/04 07:46:59;;;;;;;14.28;7.97;;;;;;;12.04;53.89;99094.21;1710025;83;21134;-58
2021/04/04 07:49:47;;;;;;;16.32;10.35;;;;;;;12.66;52.77;99095.73;1706850;82;21315;-58
2021/04/04 07:52:34;;;;;;;10.20;6.65;;;;;;;13.36;51.43;99087.62;1704408;82;21294;-59
2021/04/04 07:55:28;;;;;;;;;;;;;;;13.88;48.68;99089.70;1711157;82;21631;-59
2021/04/04 07:58:10;;;;;;;8.38;5.85;;;;;;;14.05;47.36;99091.00;1706746;82;21090;-57
2021/04/04 08:00:41;;;;;;;9.40;6.28;;;;;;;14.32;46.79;99087.37;1709326;82;21199;-57
2021/04/04 08:03:22;;;;;;;12.80;6.97;;;;;;;14.48;43.80;99084.82;1703645;82;21291;-56
2021/04/04 08:05:50;;;;;;;14.80;8.08;;;;;;;14.57;44.36;99083.07;1707786;82;21483;-56
2021/04/04 08:08:26;;;;;;;13.08;8.45;;;;;;;14.75;42.81;99085.16;1721470;82;20995;-58
2021/04/04 08:10:59;;;;;;;11.95;6.87;;;;;;;14.75;42.71;99085.98;1707884;82;21206;-56
2021/04/04 08:13:47;;;;;;;10.30;6.40;;;;;;;14.83;42.78;99088.97;1708073;82;21584;-58
2021/04/04 08:16:22;;;;;;;9.48;6.00;;;;;;;15.00;42.09;99086.16;1694457;82;21772;-57
2021/04/04 08:18:50;;;;;;;10.23;5.25;;;;;;;14.89;40.51;99087.32;1709949;82;21193;-58
2021/04/04 08:21:32;;;;;;;6.90;4.10;;;;;;;14.61;41.04;99089.68;1709917;82;21404;-58
2021/04/04 08:24:09;;;;;;;11.90;4.97;;;;;;;14.36;42.05;99098.51;1713730;82;21146;-57
2021/04/04 08:26:44;;;;;;;12.55;6.40;;;;;;;14.00;41.72;99093.46;1705724;82;21130;-59
2021/04/04 08:29:22;;;;;;;9.08;6.62;;;;;;;13.56;42.43;99096.55;1652657;82;21202;-59
2021/04/04 08:32:06;;;;;;;9.38;5.35;;;;;;;13.17;43.02;99094.99;1707407;82;21102;-58
2021/04/04 08:34:40;;;;;;;6.28;4.20;;;;;;;12.72;44.23;99099.77;1705917;82;21626;-56
2021/04/04 08:37:16;;;;;;;5.62;2.98;;;;;;;12.36;45.24;99106.54;1717377;82;21154;-57
2021/04/04 08:39:53;;;;;;;6.35;3.10;;;;;;;12.06;45.84;99109.51;1714073;82;21174;-57
2021/04/04 08:42:21;;;;;;;6.25;4.30;;;;;;;11.78;46.73;99112.06;1720264;82;21365;-57
2021/04/04 08:44:57;;;;;;;7.25;3.85;;;;;;;11.59;46.77;99111.27;1704265;83;21619;-59
2021/04/04 08:47:31;;;;;;;6.53;4.15;;;;;;;11.37;46.98;99106.86;1703305;83;21200;-58
2021/04/04 08:50:00;;;;;;;7.35;4.15;;;;;;;11.23;46.99;99099.22;1705560;83;21171;-58
2021/04/04 08:52:37;;;;;;;4.25;2.90;;;;;;;11.37;47.00;99100.20;1696594;82;21058;-58
2021/04/04 08:55:06;;;;;;;6.25;3.83;;;;;;;11.79;45.69;99093.71;1701272;82;21445;-59
2021/04/04 08:57:49;;;;;;;4.85;2.30;;;;;;;12.30;43.78;99094.48;1699362;83;21064;-57
2021/04/04 09:00:21;;;;;;;3.02;1.67;;;;;;;12.77;42.87;99095.21;1697032;83;21189;-57
2021/04/04 09:02:57;;;;;;;2.37;1.52;;;;;;;13.30;42.63;99088.40;1702483;83;21619;-58
2021/04/04 09:05:29;;;;;;;2.77;2.15;;;;;;;13.94;41.03;99084.39;1699000;83;21076;-58
2021/04/04 09:07:59;;;;;;;4.05;2.50;;;;;;;14.52;40.12;99085.54;1698797;83;21345;-60
2021/04/04 09:10:38;;;;;;;5.70;3.27;;;;;;;14.89;39.21;99072.59;1700615;83;21264;-58
2021/04/04 09:13:11;;;;;;;6.15;4.12;;;;;;;15.23;38.97;99067.78;1700851;83;21068;-58
2021/04/04 09:15:55;;;;;;;10.45;4.97;;;;;;;15.63;38.53;99067.17;1697887;83;21141;-58
2021/04/04 09:18:25;;;;;;;6.73;4.07;;;;;;;15.79;37.80;99073.41;1696986;83;21157;-55
2021/04/04 09:21:07;;;;;;;5.60;3.12;;;;;;;15.78;36.72;99068.23;1698734;83;21212;-57
2021/04/04 09:23:35;;;;;;;4.05;3.35;;;;;;;15.61;36.73;99062.55;1698715;82;21005;-59
2021/04/04 09:26:09;;;;;;;9.00;3.12;;;;;;;15.44;36.67;99070.70;1693819;83;21120;-57
2021/04/04 09:28:40;;;;;;;5.03;3.27;;;;;;;15.33;36.03;99058.78;1696095;83;21008;-58
2021/04/04 09:31:22;;;;;;;4.22;3.00;;;;;;;15.15;35.77;99058.63;1701999;83;21563;-58
2021/04/04 09:34:01;;;;;;;5.05;2.87;;;;;;;15.01;35.68;99053.51;1694771;83;21388;-58
2021/04/04 09:36:49;;;;;;;4.87;3.40;;;;;;;14.89;36.44;99057.86;1692673;83;21154;-56
2021/04/04 09:39:26;;;;;;;4.25;2.50;;;;;;;14.91;36.95;99052.61;1698961;83;21176;-60
2021/04/04 09:41:55;;;;;;;6.67;3.83;;;;;;;15.00;36.86;99051.84;1675370;84;21683;-61
2021/04/04 09:44:34;;;;;;;7.87;3.47;;;;;;;14.90;36.45;99051.45;1692521;83;21126;-61
2021/04/04 09:47:05;;;;;;;5.15;2.55;;;;;;;14.60;36.50;99053.22;1686963;83;22287;-61
2021/04/04 09:49:43;;;;;;;2.92;1.90;;;;;;;14.37;37.38;99054.64;1693066;83;21499;-59
2021/04/04 09:52:28;;;;;;;5.42;2.30;;;;;;;14.20;37.64;99047.52;1685884;83;21508;-60
2021/04/04 09:55:09;;;;;;;4.95;3.10;;;;;;;13.94;37.84;99055.48;1687382;83;21600;-63
2021/04/04 09:57:54;;;;;;;6.65;2.52;;;;;;;13.62;38.58;99051.67;1689606;83;21169;-59
2021/04/04 10:00:40;;;;;;;3.65;2.30;;;;;;;13.31;39.15;99049.48;1693284;83;21424;-59
2021/04/04 10:03:14;;;;;;;4.53;2.17;;;;;;;13.05;39.43;99054.64;1684179;83;21186;-60
2021/04/04 10:08:25;;;;;;;8.23;3.12;;;;;;;12.44;39.85;99061.56;1809640;78;22923;-59
2021/04/04 10:10:55;;;;;;;5.75;3.15;;;;;;;11.93;41.04;99066.70;1790474;79;20965;-57
2021/04/04 10:13:29;;;;;;;4.78;3.30;;;;;;;11.55;42.54;99068.18;1798015;77;21360;-56
2021/04/04 10:15:57;;;;;;;2.47;2.10;;;;;;;11.23;43.00;99070.42;1750532;80;21768;-57
2021/04/04 10:18:28;;;;;;;1.50;1.40;;;;;;;10.86;43.79;99066.83;1745838;81;20982;-58
2021/04/04 10:20:57;;;;;;;1.75;1.00;;;;;;;10.59;43.91;99071.41;1749299;81;21515;-60
2021/04/04 10:23:30;;;;;;;1.47;0.80;;;;;;;10.39;44.13;99072.42;1743259;81;20988;-61
2021/04/04 10:26:09;;;;;;;3.83;1.05;;;;;;;10.25;44.12;99064.37;1737988;81;21356;-61
2021/04/04 10:28:54;;;;;;;1.72;1.07;;;;;;;10.14;44.53;99058.97;1752642;80;20939;-59
2021/04/04 10:31:24;;;;;;;3.52;1.17;;;;;;;10.18;45.41;99060.78;1747749;80;21027;-58
2021/04/04 10:34:02;;;;;;;1.32;0.80;;;;;;;10.19;45.93;99061.95;1750917;80;21050;-58
2021/04/04 10:36:30;;;;;;;1.40;0.90;;;;;;;10.13;45.59;99063.16;1746995;80;21595;-57
2021/04/04 10:38:57;;;;;;;2.45;0.95;;;;;;;10.00;45.32;99071.69;1746272;80;21451;-57
2021/04/04 10:41:33;;;;;;;1.12;0.70;;;;;;;9.84;45.41;99071.78;1748926;80;21129;-58
2021/04/04 10:44:00;;;;;;;1.57;0.80;;;;;;;9.65;45.60;99072.21;1752120;80;20949;-57
2021/04/04 10:46:33;;;;;;;0.70;0.70;;;;;;;9.50;46.07;99073.45;1749613;80;21165;-59
2021/04/04 10:49:04;;;;;;;1.60;0.70;;;;;;;9.41;45.28;99075.00;1744865;80;21015;-59
2021/04/04 10:51:31;;;;;;;1.07;0.60;;;;;;;9.22;44.97;99080.22;1748984;80;21430;-60
2021/04/04 10:53:59;;;;;;;0.98;0.53;;;;;;;9.12;44.77;99078.26;1751006;80;21616;-62
2021/04/04 10:56:27;;;;;;;1.85;0.55;;;;;;;9.06;44.23;99081.58;1752327;80;21020;-60
2021/04/04 10:58:55;;;;;;;2.80;0.60;;;;;;;9.08;44.21;99071.62;1756704;80;21144;-62
2021/04/04 11:01:23;;;;;;;2.62;1.62;;;;;;;9.12;44.52;99077.77;1756680;79;21107;-60
2021/04/04 11:03:50;;;;;;;3.40;1.52;;;;;;;9.19;45.03;99074.75;1750793;80;21356;-59
2021/04/04 11:06:18;;;;;;;4.47;2.42;;;;;;;9.31;45.75;99069.88;1758698;80;21481;-60
2021/04/04 11:08:47;;;;;;;7.45;3.12;;;;;;;9.39;46.41;99064.54;1745530;82;21001;-59
2021/04/04 11:11:15;;;;;;;6.80;3.30;;;;;;;9.47;46.82;99065.83;1773616;80;21106;-64
2021/04/04 11:13:47;;;;;;;4.42;2.75;;;;;;;9.54;47.12;99062.80;1761485;79;21144;-61
2021/04/04 11:16:18;;;;;;;4.60;2.08;;;;;;;9.58;47.25;99068.11;1771479;79;22423;-62
2021/04/04 11:18:49;;;;;;;1.95;1.00;;;;;;;9.64;47.22;99066.09;1758718;80;21121;-61
2021/04/04 11:21:25;;;;;;;1.95;0.70;;;;;;;9.58;46.73;99076.57;1753535;79;21580;-59
2021/04/04 11:23:54;;;;;;;0.75;0.70;;;;;;;9.30;46.37;99078.86;1766529;80;20977;-58
2021/04/04 11:26:31;;;;;;;0.82;0.80;;;;;;;8.86;47.27;99082.97;1753125;79;21585;-58
2021/04/04 11:29:12;;;;;;;0.70;0.60;;;;;;;8.44;48.81;99091.96;1754897;80;21431;-56
2021/04/04 11:31:42;;;;;;;0.30;0.28;;;;;;;8.14;50.18;99092.56;1749184;79;21098;-58
2021/04/04 11:34:40;;;;;;;0.57;0.53;;;;;;;7.83;48.44;99100.78;1759382;79;20936;-57
2021/04/04 11:37:19;;;;;;;0.47;0.40;;;;;;;7.52;49.64;99104.98;1749534;80;21070;-58
2021/04/04 11:40:23;;;;;;;0.25;0.23;;;;;;;7.28;50.19;99101.25;1753095;80;21043;-56
2021/04/04 11:43:24;;;;;;;0.55;0.47;;;;;;;7.15;51.40;99088.95;1741505;80;22390;-58
2021/04/04 11:45:51;;;;;;;1.65;0.90;;;;;;;7.07;52.12;99088.08;1802300;77;20997;-57
2021/04/04 11:48:32;;;;;;;0.70;0.60;;;;;;;7.09;52.36;99082.96;1806301;78;21177;-57
2021/04/04 11:51:16;;;;;;;0.50;0.50;;;;;;;7.13;52.46;99068.94;1795891;79;21287;-57
2021/04/04 11:53:47;;;;;;;1.92;0.72;;;;;;;7.17;52.99;99065.01;1793591;77;21135;-57
2021/04/04 11:56:43;;;;;;;1.12;0.98;;;;;;;7.27;54.02;99065.70;1841618;77;21404;-57
2021/04/04 11:59:12;;;;;;;3.45;2.85;;;;;;;7.44;54.68;99060.31;1788839;77;21068;-57
2021/04/04 12:01:41;;;;;;;2.42;2.00;;;;;;;7.64;55.56;99054.75;1736788;81;20937;-57
2021/04/04 12:04:22;;;;;;;3.05;1.90;;;;;;;7.84;56.04;99056.11;1765783;80;21510;-58
2021/04/04 12:07:13;;;;;;;2.72;1.80;;;;;;;8.03;56.93;99052.64;1774208;80;21141;-56
2021/04/04 12:09:50;;;;;;;1.92;1.67;;;;;;;8.33;56.97;99053.02;1826484;77;22746;-58
2021/04/04 12:12:18;;;;;;;2.77;1.90;;;;;;;8.42;56.31;99051.52;1800438;79;21005;-57
2021/04/04 12:14:55;;;;;;;5.70;2.40;;;;;;;8.55;56.33;99045.20;1788530;79;20974;-58
2021/04/04 12:17:25;;;;;;;1.97;1.30;;;;;;;8.68;55.02;99044.19;1784621;79;21008;-58